VABB Airport Information

Runway Information
Runway 09 Length 11302 ft width 148 ft
Elevation 15 ft Threshold 465 ft Heading 89
Runway 27 Length 11302 ft Width 148 ft
Elevation 22 ft Threshold 1581 ft Heading 269
Runway 14 Length 9596 ft width 150 ft
Elevation 37 ft Threshold 1238 ft Heading 134
Runway 32 Length 9596 ft Width 150 ft
Elevation 26 ft Threshold 853 ft Heading 314
Airport Frequencies
Type ACC Name MUMBAI Frequency 120.5 MHZ
Type APP Name MUMBAI APP Frequency 127.9 MHZ
Type ATIS Name MUMBAI ATI Frequency 126.4 MHZ
Type CLD Name MUMBAI CLR Frequency 121.85 MHZ
Type GND Name MUMBAI GND Frequency 121.9 MHZ
Type RDO Name MUMBAI RDO Frequency 1008.4 MHZ
Type RDR Name RDR Frequency 119.3 MHZ
Type TWR Name MUMBAI TWR Frequency 118.1 MHZ
Airport Navaids
Type VOR-DME Name Mumbai Frequency 116600 KHZ
Airport Weather Information & NOTAM
ADDS - METARS form results

(1256 UTC 08 March 2021)
Data provider http://aviationweather.gov/metar/data/
 
METAR text: VABB 081230Z 29008KT 5000 FU NSC 31/19 Q1009 NOSIG
Conditions at: VABB (BOMBAY/SANTACRUZ, IN) observed 1230 UTC 08 March 2021
Temperature: 31.0°C (88°F)
Dewpoint: 19.0°C (66°F) [RH = 49%]
Pressure (altimeter): 29.79 inches Hg (1009.0 mb)
Winds: from the WNW (290 degrees) at 9 MPH (8 knots; 4.1 m/s)
Visibility: 3 miles ( 5 km)
Ceiling: at least 12,000 feet AGL
Clouds: sky clear below 12,000 feet AGL
Weather: FU  (smoke)

METAR text: VABB 081200Z 31010KT 5000 FU NSC 31/21 Q1009 NOSIG
Conditions at: VABB (BOMBAY/SANTACRUZ, IN) observed 1200 UTC 08 March 2021
Temperature: 31.0°C (88°F)
Dewpoint: 21.0°C (70°F) [RH = 55%]
Pressure (altimeter): 29.79 inches Hg (1009.0 mb)
Winds: from the NW (310 degrees) at 12 MPH (10 knots; 5.1 m/s)
Visibility: 3 miles ( 5 km)
Ceiling: at least 12,000 feet AGL
Clouds: sky clear below 12,000 feet AGL
Weather: FU  (smoke)

Forecast for: VABB (BOMBAY/SANTACRUZ, IN)
Text: TAF VABB 081100Z 0812/0821 32008KT 3000 FU NSC
Forecast period: 1200 to 1800 UTC 08 March 2021
Forecast type: FROM: standard forecast or significant change
Winds: from the NW (320 degrees) at 9 MPH (8 knots; 4.1 m/s)
Visibility: 1.86 miles (2.99 km)
Ceiling: unknown
Clouds: missing
Weather: FU  (smoke)
Text: BECMG 0818/0820 00000KT 2500 FU
Forecast period: 1800 to 2100 UTC 08 March 2021
Forecast type: BECOMING: Conditions expected to become as follows by 2000 UTC 08 March 2021
Winds: calm
Visibility: 1.55 miles (2.49 km)
Ceiling: unknown
Clouds: missing
Weather: FU  (smoke)